Time;durP1;ratioP1;P1;durP2;ratioP2;P2;SDS_P1;SDS_P2;PMS_P1;PMS_P2;Temp;Humidity;BMP_temperature;BMP_pressure;BME280_temperature;BME280_humidity;BME280_pressure;Samples;Min_cycle;Max_cycle;Signal;HPM_P1;HPM_P2
2021/10/24 00:01:38;;;;;;;5.53;3.80;;;10.20;71.60;;;;;;5058566;28;20485;-75
2021/10/24 00:04:04;;;;;;;5.60;3.65;;;10.20;70.70;;;;;;5073504;28;20028;-75
2021/10/24 00:06:29;;;;;;;8.88;3.78;;;10.20;70.80;;;;;;5055722;28;20037;-75
2021/10/24 00:08:55;;;;;;;6.40;3.63;;;10.20;70.80;;;;;;5073088;28;20165;-75
2021/10/24 00:11:20;;;;;;;5.93;3.45;;;10.20;70.80;;;;;;5069023;28;20020;-75
2021/10/24 00:13:46;;;;;;;4.40;3.22;;;10.10;71.00;;;;;;5058854;28;20020;-75
2021/10/24 00:16:12;;;;;;;5.03;3.50;;;10.10;71.00;;;;;;5084506;28;20035;-75
2021/10/24 00:18:37;;;;;;;6.07;3.15;;;10.10;70.80;;;;;;5057457;28;20099;-75
2021/10/24 00:21:03;;;;;;;5.97;3.38;;;10.10;71.00;;;;;;5075602;28;20031;-75
2021/10/24 00:23:29;;;;;;;5.88;3.75;;;10.00;70.80;;;;;;5074160;28;20032;-75
2021/10/24 00:25:55;;;;;;;6.22;3.40;;;10.00;70.90;;;;;;5084364;28;20024;-75
2021/10/24 00:28:21;;;;;;;5.70;3.42;;;10.00;71.00;;;;;;5038973;28;20078;-75
2021/10/24 00:30:47;;;;;;;7.50;4.00;;;10.00;71.20;;;;;;5058291;28;20456;-75
2021/10/24 00:33:13;;;;;;;6.13;3.55;;;10.00;70.90;;;;;;5071106;28;20031;-75
2021/10/24 00:35:39;;;;;;;6.15;3.33;;;10.00;71.00;;;;;;5072739;28;20489;-75
2021/10/24 00:38:05;;;;;;;7.57;3.35;;;9.90;71.00;;;;;;5072213;28;20074;-75
2021/10/24 00:40:31;;;;;;;5.20;3.20;;;9.90;71.10;;;;;;5056691;28;20044;-75
2021/10/24 00:42:58;;;;;;;5.07;3.42;;;9.90;71.50;;;;;;5073041;28;20021;-75
2021/10/24 00:45:24;;;;;;;6.95;3.55;;;9.90;71.40;;;;;;5072291;28;20528;-75
2021/10/24 00:47:51;;;;;;;6.40;3.60;;;10.00;71.50;;;;;;5072522;28;20029;-75
2021/10/24 00:50:17;;;;;;;6.03;3.35;;;10.00;70.90;;;;;;5054598;28;20385;-75
2021/10/24 00:52:43;;;;;;;6.05;3.40;;;9.90;70.80;;;;;;5054586;28;20028;-75
2021/10/24 00:55:09;;;;;;;6.65;3.88;;;9.80;71.00;;;;;;5072279;28;20029;-75
2021/10/24 00:57:35;;;;;;;5.30;3.60;;;9.80;71.10;;;;;;5054720;28;20028;-75
2021/10/24 01:00:07;;;;;;;6.82;3.92;;;9.80;71.20;;;;;;5072187;28;20036;-75
2021/10/24 01:02:35;;;;;;;6.95;3.85;;;9.70;71.20;;;;;;5072175;28;20025;-75
2021/10/24 01:05:02;;;;;;;6.13;4.18;;;9.70;71.30;;;;;;5072224;28;20032;-75
2021/10/24 01:07:28;;;;;;;5.75;3.50;;;9.60;71.10;;;;;;5056047;28;20129;-75
2021/10/24 01:09:54;;;;;;;5.25;3.88;;;9.60;71.50;;;;;;5054415;28;20484;-75
2021/10/24 01:12:19;;;;;;;7.55;3.85;;;9.50;71.60;;;;;;5061247;28;20477;-75
2021/10/24 01:14:45;;;;;;;6.93;4.38;;;9.50;71.60;;;;;;5065229;28;20028;-75
2021/10/24 01:17:11;;;;;;;8.02;4.35;;;9.50;71.70;;;;;;5070656;28;20035;-75
2021/10/24 01:19:36;;;;;;;6.70;3.42;;;9.50;71.90;;;;;;5055795;28;20101;-75
2021/10/24 01:22:02;;;;;;;5.88;4.10;;;9.40;71.90;;;;;;5072155;28;20092;-75
2021/10/24 01:24:29;;;;;;;6.78;3.95;;;9.40;72.10;;;;;;5063828;28;20109;-75
2021/10/24 01:26:55;;;;;;;6.40;3.70;;;9.40;72.00;;;;;;5057308;28;20033;-75
2021/10/24 01:29:23;;;;;;;8.88;4.10;;;9.40;72.40;;;;;;5053693;28;20503;-75
2021/10/24 01:31:50;;;;;;;6.82;3.70;;;9.50;72.80;;;;;;5071629;28;20115;-75
2021/10/24 01:34:16;;;;;;;7.05;3.83;;;9.40;71.90;;;;;;5037645;28;20028;-75
2021/10/24 01:36:42;;;;;;;8.02;4.05;;;9.40;72.20;;;;;;5058557;28;20075;-75
2021/10/24 01:39:07;;;;;;;8.32;3.72;;;9.30;72.10;;;;;;5068883;28;20036;-75
2021/10/24 01:41:33;;;;;;;6.25;3.95;;;9.20;72.20;;;;;;5029958;28;20061;-75
2021/10/24 01:43:59;;;;;;;7.10;3.85;;;9.20;72.30;;;;;;5018757;28;20060;-75
2021/10/24 01:46:25;;;;;;;6.72;3.40;;;9.20;72.70;;;;;;5031493;28;20053;-75
2021/10/24 01:48:51;;;;;;;6.07;3.30;;;9.10;72.60;;;;;;5047586;28;20057;-75
2021/10/24 01:51:17;;;;;;;7.82;3.55;;;9.10;72.90;;;;;;5031261;28;20029;-75
2021/10/24 01:53:45;;;;;;;5.22;3.55;;;9.00;72.80;;;;;;5031084;28;20120;-75
2021/10/24 01:56:11;;;;;;;5.70;3.45;;;8.90;73.00;;;;;;5029753;28;20532;-75
2021/10/24 01:58:37;;;;;;;5.13;3.50;;;9.00;73.70;;;;;;5016803;28;20025;-76
2021/10/24 02:01:04;;;;;;;6.03;3.30;;;9.00;73.60;;;;;;5031527;28;20033;-75
2021/10/24 02:03:30;;;;;;;5.65;3.30;;;8.80;73.00;;;;;;5031630;28;20037;-75
2021/10/24 02:05:56;;;;;;;4.75;3.25;;;8.80;73.50;;;;;;5031292;28;20079;-75
2021/10/24 02:08:22;;;;;;;4.40;3.03;;;8.90;74.50;;;;;;5029156;28;20048;-75
2021/10/24 02:10:48;;;;;;;6.10;2.80;;;8.90;73.60;;;;;;5031060;28;20021;-75
2021/10/24 02:13:14;;;;;;;4.53;3.15;;;8.90;73.30;;;;;;5015249;28;20022;-75
2021/10/24 02:15:40;;;;;;;4.40;3.17;;;8.80;72.90;;;;;;5031866;28;20026;-73
2021/10/24 02:18:09;;;;;;;6.28;3.15;;;8.90;73.50;;;;;;5020850;28;20026;-75
2021/10/24 02:20:36;;;;;;;6.80;3.25;;;8.80;73.00;;;;;;5024326;28;20025;-75
2021/10/24 02:23:04;;;;;;;6.22;3.15;;;8.80;73.20;;;;;;5029239;28;20112;-75
2021/10/24 02:25:30;;;;;;;4.30;2.88;;;8.80;73.50;;;;;;5029321;28;20033;-75
2021/10/24 02:27:56;;;;;;;4.05;3.13;;;8.70;73.30;;;;;;5016196;28;20113;-75
2021/10/24 02:30:22;;;;;;;5.57;2.92;;;8.70;73.30;;;;;;5030868;28;20112;-75
2021/10/24 02:32:48;;;;;;;7.15;3.08;;;8.60;73.60;;;;;;5030711;28;20026;-75
2021/10/24 02:35:14;;;;;;;4.05;2.58;;;8.60;74.00;;;;;;5029420;28;20027;-75
2021/10/24 02:37:41;;;;;;;5.55;2.58;;;8.70;74.30;;;;;;5016360;28;20028;-75
2021/10/24 02:40:08;;;;;;;3.92;3.08;;;8.70;73.80;;;;;;5037960;28;20142;-75
2021/10/24 02:42:33;;;;;;;3.10;2.42;;;8.80;74.20;;;;;;5070939;28;20021;-75
2021/10/24 02:44:59;;;;;;;4.40;2.72;;;8.90;73.50;;;;;;5070633;28;20043;-75
2021/10/24 02:47:25;;;;;;;3.95;2.50;;;8.80;73.60;;;;;;5070792;28;20020;-75
2021/10/24 02:49:50;;;;;;;4.25;2.42;;;8.80;73.80;;;;;;5070874;28;20029;-75
2021/10/24 02:52:16;;;;;;;3.85;2.45;;;8.80;73.70;;;;;;5070619;28;20481;-75
2021/10/24 02:54:42;;;;;;;3.05;2.30;;;8.70;73.50;;;;;;5075324;28;20382;-75
2021/10/24 02:57:08;;;;;;;3.83;2.65;;;8.70;73.70;;;;;;5074095;28;20115;-75
2021/10/24 02:59:34;;;;;;;4.70;2.72;;;8.70;73.70;;;;;;5074365;28;20115;-75
2021/10/24 03:02:00;;;;;;;5.22;2.40;;;8.70;74.20;;;;;;5074503;28;20485;-74
2021/10/24 03:04:27;;;;;;;3.13;2.42;;;8.70;74.00;;;;;;5074387;28;20041;-74
2021/10/24 03:06:53;;;;;;;4.15;2.40;;;8.70;73.80;;;;;;5074676;28;20044;-76
2021/10/24 03:09:18;;;;;;;3.35;2.47;;;8.70;73.80;;;;;;5074041;28;20485;-74
2021/10/24 03:11:44;;;;;;;4.75;2.70;;;8.70;74.20;;;;;;5068085;28;20017;-73
2021/10/24 03:14:10;;;;;;;4.38;2.47;;;8.70;73.40;;;;;;5062758;28;20035;-74
2021/10/24 03:16:36;;;;;;;4.07;2.42;;;8.70;73.90;;;;;;5059490;28;20485;-75
2021/10/24 03:19:02;;;;;;;5.50;2.92;;;8.60;73.80;;;;;;5074864;28;20081;-76
2021/10/24 03:21:29;;;;;;;4.07;2.78;;;8.70;74.20;;;;;;5074017;28;20021;-76
2021/10/24 03:23:55;;;;;;;5.90;2.85;;;8.60;73.80;;;;;;5080059;28;20221;-74
2021/10/24 03:26:20;;;;;;;3.90;2.75;;;8.70;74.30;;;;;;5083587;28;21776;-77
2021/10/24 03:28:47;;;;;;;2.70;2.20;;;8.70;74.30;;;;;;5075833;28;20374;-75
2021/10/24 03:31:14;;;;;;;5.45;2.60;;;8.70;73.80;;;;;;5074903;28;20048;-75
2021/10/24 03:33:40;;;;;;;6.45;2.67;;;8.70;74.00;;;;;;5060010;28;20096;-76
2021/10/24 03:36:05;;;;;;;3.55;2.13;;;8.60;73.10;;;;;;5072763;28;20496;-76
2021/10/24 03:38:31;;;;;;;3.92;2.42;;;8.60;75.00;;;;;;5074482;28;20012;-75
2021/10/24 03:40:57;;;;;;;5.80;2.40;;;8.60;74.00;;;;;;5073408;28;20064;-76
2021/10/24 03:43:24;;;;;;;4.03;2.40;;;8.60;74.10;;;;;;5075444;28;20067;-76
2021/10/24 03:45:50;;;;;;;3.70;2.20;;;8.60;73.90;;;;;;5076155;28;20025;-76
2021/10/24 03:48:15;;;;;;;4.00;2.40;;;8.60;73.80;;;;;;5074726;28;20043;-76
2021/10/24 03:50:41;;;;;;;4.90;2.33;;;8.50;73.90;;;;;;5073015;28;20033;-76
2021/10/24 03:53:07;;;;;;;3.75;2.30;;;8.60;74.30;;;;;;5072782;28;20480;-76
2021/10/24 03:55:32;;;;;;;4.97;2.30;;;8.60;73.80;;;;;;5058155;28;20519;-76
2021/10/24 03:57:58;;;;;;;4.50;2.50;;;8.60;74.60;;;;;;5073780;28;20074;-75
2021/10/24 04:00:24;;;;;;;3.42;2.15;;;8.60;73.80;;;;;;5073491;28;20086;-75
2021/10/24 04:03:02;;;;;;;4.43;2.10;;;8.60;73.80;;;;;;5073391;28;20033;-75
2021/10/24 04:05:28;;;;;;;5.20;2.28;;;8.70;73.80;;;;;;5071705;28;20035;-75
2021/10/24 04:07:55;;;;;;;3.30;2.15;;;8.50;73.30;;;;;;5055338;28;20036;-75
2021/10/24 04:10:22;;;;;;;3.72;2.42;;;8.50;73.70;;;;;;5071530;28;20077;-75
2021/10/24 04:12:48;;;;;;;5.18;2.42;;;8.60;74.60;;;;;;5059154;28;20068;-75
2021/10/24 04:15:15;;;;;;;4.30;2.20;;;8.50;74.20;;;;;;5071737;28;20028;-75
2021/10/24 04:17:41;;;;;;;4.25;2.30;;;8.50;73.90;;;;;;5072650;28;20024;-75
2021/10/24 04:20:10;;;;;;;3.38;2.30;;;8.40;74.20;;;;;;5072834;28;20512;-75
2021/10/24 04:22:37;;;;;;;5.07;2.55;;;8.30;74.10;;;;;;5072831;28;20109;-75
2021/10/24 04:25:05;;;;;;;4.68;2.33;;;8.30;75.50;;;;;;5087458;28;20244;-75
2021/10/24 04:27:32;;;;;;;4.28;2.30;;;8.40;74.70;;;;;;5072348;28;20055;-75
2021/10/24 04:29:58;;;;;;;4.50;2.75;;;8.40;74.50;;;;;;5072669;28;20036;-75
2021/10/24 04:32:24;;;;;;;3.65;2.50;;;8.40;74.10;;;;;;5069154;28;20593;-75
2021/10/24 04:34:50;;;;;;;5.25;2.38;;;8.50;74.50;;;;;;5059720;28;20032;-75
2021/10/24 04:37:16;;;;;;;3.22;2.20;;;8.30;74.10;;;;;;5072719;28;20032;-75
2021/10/24 04:39:42;;;;;;;2.88;2.22;;;8.50;75.20;;;;;;5074230;28;20093;-75
2021/10/24 04:42:08;;;;;;;5.15;2.38;;;8.40;74.10;;;;;;5072908;28;20044;-76
2021/10/24 04:44:34;;;;;;;3.67;2.20;;;8.40;74.20;;;;;;5067710;28;20406;-75
2021/10/24 04:46:59;;;;;;;3.83;2.10;;;8.40;74.30;;;;;;5071836;28;20489;-76
2021/10/24 04:49:25;;;;;;;3.90;2.20;;;8.40;74.20;;;;;;5070732;28;20029;-75
2021/10/24 04:51:51;;;;;;;3.78;2.35;;;8.40;74.20;;;;;;5050912;28;20021;-76
2021/10/24 04:54:16;;;;;;;5.65;2.30;;;8.30;74.20;;;;;;5061786;28;20497;-75
2021/10/24 04:56:42;;;;;;;4.50;2.70;;;8.30;75.10;;;;;;5065185;28;20029;-75
2021/10/24 04:59:08;;;;;;;4.60;2.40;;;8.30;74.50;;;;;;5072030;28;20104;-75
2021/10/24 05:01:33;;;;;;;3.75;2.13;;;8.40;75.00;;;;;;5070688;28;20443;-75
2021/10/24 05:03:59;;;;;;;5.75;2.10;;;8.30;74.30;;;;;;5038478;28;20064;-75
2021/10/24 05:06:25;;;;;;;4.88;1.95;;;8.30;74.50;;;;;;5060840;28;20512;-75
2021/10/24 05:08:50;;;;;;;4.75;2.20;;;8.30;74.70;;;;;;5067175;28;20028;-75
2021/10/24 05:11:16;;;;;;;3.63;2.00;;;8.30;74.80;;;;;;5053860;28;20481;-75
2021/10/24 05:13:41;;;;;;;3.22;2.40;;;8.40;74.80;;;;;;5072012;28;20068;-75
2021/10/24 05:16:07;;;;;;;4.75;2.45;;;8.50;75.40;;;;;;5071370;28;20070;-75
2021/10/24 05:18:33;;;;;;;6.38;2.30;;;8.50;74.40;;;;;;5072315;28;20064;-76
2021/10/24 05:20:59;;;;;;;4.97;2.33;;;8.60;74.70;;;;;;5071506;28;20207;-73
2021/10/24 05:23:25;;;;;;;4.07;1.95;;;8.60;74.20;;;;;;5073042;28;20490;-75
2021/10/24 05:25:50;;;;;;;3.72;2.00;;;8.50;74.20;;;;;;5084629;28;20397;-75
2021/10/24 05:28:17;;;;;;;4.38;2.10;;;8.50;74.20;;;;;;5071719;28;20489;-75
2021/10/24 05:30:43;;;;;;;3.22;2.28;;;8.40;74.20;;;;;;5071829;28;20033;-74
2021/10/24 05:33:08;;;;;;;4.13;2.22;;;8.40;74.20;;;;;;5071708;28;20040;-75
2021/10/24 05:35:34;;;;;;;4.55;1.98;;;8.30;74.40;;;;;;5071728;28;20043;-75
2021/10/24 05:38:00;;;;;;;4.22;2.40;;;8.30;74.20;;;;;;5055410;28;20024;-75
2021/10/24 05:40:26;;;;;;;3.80;1.83;;;8.30;74.60;;;;;;5052881;28;20045;-74
2021/10/24 05:42:52;;;;;;;6.13;2.38;;;8.30;74.70;;;;;;5071973;28;20024;-75
2021/10/24 05:45:18;;;;;;;4.18;2.33;;;8.30;74.40;;;;;;5042496;28;20033;-75
2021/10/24 05:47:44;;;;;;;2.85;2.00;;;8.20;74.90;;;;;;5066136;28;20393;-74
2021/10/24 05:50:09;;;;;;;3.55;2.20;;;8.10;74.50;;;;;;5070285;28;20024;-74
2021/10/24 05:52:35;;;;;;;6.45;2.30;;;8.20;75.40;;;;;;5038727;28;20028;-74
2021/10/24 05:55:01;;;;;;;4.85;2.45;;;8.10;74.80;;;;;;5037791;28;20017;-74
2021/10/24 05:57:26;;;;;;;4.50;2.10;;;8.10;75.90;;;;;;5059322;28;20569;-74
2021/10/24 05:59:52;;;;;;;3.72;1.85;;;8.10;75.40;;;;;;5065331;28;20037;-74
2021/10/24 06:02:18;;;;;;;3.50;1.90;;;8.00;75.20;;;;;;5071216;28;20039;-74
2021/10/24 06:04:43;;;;;;;5.90;2.67;;;7.80;75.20;;;;;;5071350;28;20036;-75
2021/10/24 06:07:09;;;;;;;2.97;2.25;;;7.90;76.00;;;;;;5037381;28;20029;-76
2021/10/24 06:12:17;;;;;;;4.65;2.22;;;7.80;75.40;;;;;;5069330;28;20196;-76
2021/10/24 06:14:43;;;;;;;3.53;2.42;;;7.80;75.60;;;;;;5070747;28;20033;-76
2021/10/24 06:17:09;;;;;;;4.28;2.30;;;7.80;75.30;;;;;;5071184;28;20537;-76
2021/10/24 06:19:37;;;;;;;3.63;1.88;;;7.80;76.20;;;;;;5071223;28;20029;-75
2021/10/24 06:22:05;;;;;;;4.55;2.60;;;7.70;76.20;;;;;;5071258;28;20572;-75
2021/10/24 06:24:30;;;;;;;3.60;2.20;;;7.80;76.30;;;;;;5081982;28;20036;-75
2021/10/24 06:26:56;;;;;;;5.75;2.60;;;7.80;76.40;;;;;;5073407;28;20036;-75
2021/10/24 06:29:22;;;;;;;4.82;2.25;;;7.90;77.60;;;;;;5053625;28;20040;-74
2021/10/24 06:31:47;;;;;;;5.03;2.22;;;7.90;75.70;;;;;;5061983;28;20024;-75
2021/10/24 06:34:13;;;;;;;4.57;2.40;;;7.80;75.40;;;;;;5075283;28;20455;-75
2021/10/24 06:36:39;;;;;;;3.33;2.30;;;7.80;76.20;;;;;;5055686;28;20115;-75
2021/10/24 06:39:04;;;;;;;4.78;2.38;;;7.80;76.60;;;;;;5048595;28;20370;-75
2021/10/24 06:41:30;;;;;;;4.53;2.53;;;8.00;77.00;;;;;;5063449;28;20045;-75
2021/10/24 06:43:55;;;;;;;3.63;2.30;;;8.00;75.90;;;;;;5062439;28;20028;-75
2021/10/24 06:46:21;;;;;;;5.45;2.45;;;8.00;76.00;;;;;;5074912;28;20027;-75
2021/10/24 06:48:47;;;;;;;5.20;2.25;;;7.90;75.40;;;;;;5057351;28;20037;-75
2021/10/24 06:51:12;;;;;;;3.00;2.08;;;8.10;76.50;;;;;;5074748;28;20024;-75
2021/10/24 06:53:38;;;;;;;3.00;2.20;;;8.10;76.10;;;;;;5074805;28;20100;-75
2021/10/24 06:56:04;;;;;;;4.57;2.20;;;8.10;76.20;;;;;;5074497;28;20029;-75
2021/10/24 06:58:29;;;;;;;3.67;1.90;;;8.10;75.90;;;;;;5056321;28;20027;-75
2021/10/24 07:00:55;;;;;;;3.83;2.10;;;8.20;75.80;;;;;;5049665;28;20029;-75
2021/10/24 07:03:21;;;;;;;3.40;2.30;;;8.30;76.60;;;;;;5044805;28;20033;-75
2021/10/24 07:05:47;;;;;;;4.20;2.30;;;8.60;77.20;;;;;;5069365;28;20040;-75
2021/10/24 07:08:12;;;;;;;3.75;2.30;;;8.70;75.40;;;;;;5072638;28;20500;-75
2021/10/24 07:10:38;;;;;;;4.00;2.17;;;8.70;75.30;;;;;;5059905;28;20029;-75
2021/10/24 07:13:04;;;;;;;3.13;2.08;;;8.60;74.60;;;;;;5074200;28;20017;-75
2021/10/24 07:15:30;;;;;;;4.68;2.38;;;8.60;75.30;;;;;;5056850;28;20033;-76
2021/10/24 07:17:56;;;;;;;4.05;2.17;;;8.60;74.70;;;;;;5074277;28;20029;-75
2021/10/24 07:20:22;;;;;;;3.13;2.10;;;8.60;74.80;;;;;;5074816;28;20036;-75
2021/10/24 07:22:48;;;;;;;3.72;2.50;;;8.60;75.40;;;;;;5057027;28;20020;-75
2021/10/24 07:25:14;;;;;;;3.90;2.50;;;8.60;75.30;;;;;;5076409;28;20129;-75
2021/10/24 07:27:41;;;;;;;3.33;2.35;;;8.60;75.50;;;;;;5073325;28;20020;-76
2021/10/24 07:30:07;;;;;;;4.22;2.42;;;8.60;75.10;;;;;;5052502;28;20025;-75
2021/10/24 07:32:34;;;;;;;3.88;2.17;;;8.60;75.00;;;;;;5082056;28;20112;-75
2021/10/24 07:35:00;;;;;;;4.28;2.10;;;8.60;75.30;;;;;;5074749;28;20500;-75
2021/10/24 07:37:25;;;;;;;4.18;2.55;;;8.60;75.70;;;;;;5083170;28;20060;-75
2021/10/24 07:39:51;;;;;;;4.90;2.58;;;8.80;75.60;;;;;;5057263;28;20023;-75
2021/10/24 07:42:17;;;;;;;4.38;2.50;;;8.70;74.70;;;;;;5063505;28;20507;-75
2021/10/24 07:44:43;;;;;;;3.33;2.40;;;8.70;75.40;;;;;;5080519;28;20107;-75
2021/10/24 07:47:08;;;;;;;4.95;2.78;;;8.80;75.70;;;;;;5056279;28;20503;-75
2021/10/24 07:49:34;;;;;;;3.95;2.33;;;8.80;74.90;;;;;;5082870;28;20082;-76
2021/10/24 07:52:00;;;;;;;2.95;2.22;;;8.70;74.80;;;;;;5076017;28;20132;-75
2021/10/24 07:54:26;;;;;;;4.65;2.40;;;8.80;75.80;;;;;;5071923;28;20040;-75
2021/10/24 07:56:52;;;;;;;2.90;2.20;;;8.80;75.10;;;;;;5069090;28;20056;-75
2021/10/24 07:59:20;;;;;;;4.28;2.30;;;8.90;75.70;;;;;;5072570;28;20063;-75
2021/10/24 08:01:45;;;;;;;3.45;2.65;;;9.40;76.00;;;;;;5055313;28;20115;-75
2021/10/24 08:04:12;;;;;;;5.45;2.88;;;9.80;74.90;;;;;;5056542;28;20119;-75
2021/10/24 08:06:39;;;;;;;6.15;2.63;;;10.30;75.00;;;;;;5055005;28;20035;-75
2021/10/24 08:09:10;;;;;;;4.22;3.00;;;10.70;73.50;;;;;;5073628;28;20033;-74
2021/10/24 08:11:36;;;;;;;4.18;2.42;;;11.10;73.10;;;;;;5051670;28;20115;-73
2021/10/24 08:14:03;;;;;;;5.82;2.72;;;11.50;70.50;;;;;;5072087;28;20024;-73
2021/10/24 08:16:29;;;;;;;6.65;2.88;;;11.60;70.20;;;;;;5072342;28;20024;-72
2021/10/24 08:18:55;;;;;;;4.85;2.53;;;11.60;68.90;;;;;;5073344;28;20028;-72
2021/10/24 08:21:22;;;;;;;4.18;2.70;;;11.70;69.40;;;;;;5071612;28;20028;-73
2021/10/24 08:23:49;;;;;;;3.85;2.58;;;11.80;68.90;;;;;;5074882;28;20399;-73
2021/10/24 08:26:16;;;;;;;4.88;2.65;;;12.00;68.80;;;;;;5073011;28;20503;-74
2021/10/24 08:28:42;;;;;;;6.03;2.42;;;12.20;69.00;;;;;;5073087;28;20024;-73
2021/10/24 08:31:07;;;;;;;4.57;2.70;;;12.40;67.40;;;;;;5073120;28;20413;-73
2021/10/24 08:33:33;;;;;;;4.20;2.50;;;12.30;66.60;;;;;;5073513;28;20090;-74
2021/10/24 08:36:00;;;;;;;3.95;2.45;;;12.50;67.70;;;;;;5071952;28;20153;-73
2021/10/24 08:38:27;;;;;;;4.03;2.40;;;12.80;67.30;;;;;;5082024;28;20028;-74
2021/10/24 08:40:54;;;;;;;3.67;2.35;;;12.90;67.30;;;;;;5072293;28;20112;-74
2021/10/24 08:43:28;;;;;;;3.55;2.40;;;13.00;66.70;;;;;;5073368;28;20033;-74
2021/10/24 08:45:54;;;;;;;3.70;2.28;;;13.20;66.30;;;;;;5074394;28;20039;-73
2021/10/24 08:48:20;;;;;;;5.78;2.50;;;13.30;65.40;;;;;;5069428;28;20055;-74
2021/10/24 08:50:46;;;;;;;5.13;2.53;;;13.20;65.00;;;;;;5070768;28;20145;-76
2021/10/24 08:53:13;;;;;;;4.07;2.85;;;13.30;65.70;;;;;;5050682;28;20021;-70
2021/10/24 08:55:41;;;;;;;2.78;2.15;;;13.30;65.80;;;;;;5073227;28;20028;-69
2021/10/24 08:58:08;;;;;;;3.85;2.50;;;13.40;66.00;;;;;;5073744;28;20024;-63
2021/10/24 09:00:34;;;;;;;3.58;2.22;;;13.60;65.30;;;;;;5078519;28;20031;-63
2021/10/24 09:03:00;;;;;;;3.85;2.30;;;13.70;66.10;;;;;;5076001;28;20021;-63
2021/10/24 09:05:37;;;;;;;4.13;2.30;;;13.90;65.50;;;;;;5068842;28;20040;-71
2021/10/24 09:08:11;;;;;;;4.22;2.30;;;14.10;65.80;;;;;;5073961;28;20154;-71
2021/10/24 09:10:49;;;;;;;3.17;2.10;;;14.40;64.90;;;;;;5069786;28;20032;-71
2021/10/24 09:13:20;;;;;;;4.50;2.13;;;14.50;64.00;;;;;;5071406;28;20040;-78
2021/10/24 09:16:12;;;;;;;2.85;2.00;;;14.70;64.20;;;;;;5073325;28;20189;-79
2021/10/24 09:18:39;;;;;;;3.35;2.40;;;14.70;64.50;;;;;;5066616;28;20141;-63
2021/10/24 09:21:17;;;;;;;5.00;2.25;;;14.80;63.40;;;;;;5071647;28;20413;-64
2021/10/24 09:23:59;;;;;;;2.95;2.05;;;15.00;64.30;;;;;;5072680;28;20024;-64
2021/10/24 09:26:27;;;;;;;3.88;2.42;;;15.00;63.10;;;;;;5069887;28;20028;-65
2021/10/24 09:29:16;;;;;;;3.17;2.08;;;15.20;62.70;;;;;;5070221;28;20209;-65
2021/10/24 09:31:44;;;;;;;4.55;2.50;;;15.20;62.60;;;;;;5069788;28;20033;-65
2021/10/24 09:34:15;;;;;;;3.35;2.10;;;15.30;62.70;;;;;;5071382;28;20028;-65
2021/10/24 09:36:55;;;;;;;2.47;2.00;;;15.40;63.30;;;;;;5069776;28;20024;-76
2021/10/24 09:39:32;;;;;;;3.50;2.20;;;15.70;63.30;;;;;;5049283;28;20447;-75
2021/10/24 09:42:18;;;;;;;3.03;2.15;;;15.90;62.20;;;;;;5071021;28;20094;-76
2021/10/24 09:45:04;;;;;;;3.50;2.30;;;16.00;62.40;;;;;;5070163;28;20036;-75
2021/10/24 09:47:34;;;;;;;4.65;2.35;;;16.20;62.80;;;;;;5070002;28;20413;-76
2021/10/24 09:50:00;;;;;;;3.30;2.30;;;16.30;60.60;;;;;;5068534;28;20107;-78
2021/10/24 09:52:34;;;;;;;3.28;2.33;;;16.60;61.10;;;;;;5069290;28;20028;-77
2021/10/24 09:55:00;;;;;;;4.20;2.40;;;16.90;60.60;;;;;;5068086;28;20016;-77
2021/10/24 09:57:27;;;;;;;4.35;2.40;;;17.10;59.70;;;;;;5069921;28;20028;-75
2021/10/24 09:59:54;;;;;;;3.63;2.50;;;17.20;59.50;;;;;;5070299;28;20584;-76
2021/10/24 10:02:24;;;;;;;4.72;2.40;;;16.90;58.90;;;;;;5067277;28;20024;-79
2021/10/24 10:04:50;;;;;;;4.53;2.40;;;16.70;59.60;;;;;;5069843;28;20039;-79
2021/10/24 10:07:20;;;;;;;3.20;2.25;;;16.40;60.00;;;;;;5051420;28;20020;-78
2021/10/24 10:09:46;;;;;;;3.35;2.15;;;16.40;61.50;;;;;;5070615;28;20021;-77
2021/10/24 10:12:17;;;;;;;3.30;2.08;;;16.80;62.00;;;;;;5070437;28;20492;-75
2021/10/24 10:14:45;;;;;;;2.88;2.00;;;17.50;61.80;;;;;;5068151;28;20028;-75
2021/10/24 10:17:14;;;;;;;3.42;2.30;;;18.00;60.40;;;;;;5069718;28;20028;-75
2021/10/24 10:19:41;;;;;;;3.45;2.17;;;18.60;62.50;;;;;;5051639;28;20024;-74
2021/10/24 10:22:27;;;;;;;2.85;2.00;;;19.10;58.20;;;;;;5070550;28;20544;-75
2021/10/24 10:25:04;;;;;;;3.80;2.30;;;19.60;59.60;;;;;;5070809;28;20032;-75
2021/10/24 10:27:36;;;;;;;2.03;1.80;;;19.50;56.10;;;;;;5069925;28;20459;-77
2021/10/24 10:30:06;;;;;;;3.47;1.93;;;19.60;56.10;;;;;;5069649;28;20024;-72
2021/10/24 10:32:36;;;;;;;3.92;1.98;;;19.60;55.90;;;;;;5070847;28;20271;-76
2021/10/24 10:35:13;;;;;;;3.10;1.95;;;19.50;55.10;;;;;;5068816;28;20111;-77
2021/10/24 10:37:50;;;;;;;2.75;1.90;;;19.70;55.50;;;;;;5070485;28;20027;-76
2021/10/24 10:40:18;;;;;;;2.80;1.90;;;19.60;55.10;;;;;;5069659;28;20081;-77
2021/10/24 10:42:45;;;;;;;2.70;1.98;;;19.60;57.10;;;;;;5071388;28;20111;-77
2021/10/24 10:45:14;;;;;;;2.85;1.90;;;19.90;55.30;;;;;;5080989;28;20092;-82
2021/10/24 10:48:02;;;;;;;2.78;2.00;;;20.20;55.00;;;;;;5086086;28;20035;-81
2021/10/24 10:50:28;;;;;;;4.30;1.70;;;20.90;57.10;;;;;;5070978;28;20116;-77
2021/10/24 10:52:59;;;;;;;2.83;1.80;;;20.80;53.90;;;;;;5071357;28;20110;-76
2021/10/24 10:55:26;;;;;;;2.47;1.80;;;20.50;54.50;;;;;;5070987;28;20070;-75
2021/10/24 10:57:52;;;;;;;2.20;1.80;;;20.00;53.10;;;;;;5072229;28;20032;-75
2021/10/24 11:00:37;;;;;;;3.83;1.63;;;20.00;55.00;;;;;;5070661;28;20028;-74
2021/10/24 11:03:03;;;;;;;2.92;1.60;;;19.50;56.10;;;;;;5070728;28;20031;-74
2021/10/24 11:05:37;;;;;;;4.45;1.77;;;19.90;57.50;;;;;;5070915;28;20029;-74
2021/10/24 11:08:03;;;;;;;4.43;1.50;;;20.10;58.30;;;;;;5072292;28;20565;-75
2021/10/24 11:10:45;;;;;;;2.75;1.45;;;20.20;55.90;;;;;;5070578;28;20103;-77
2021/10/24 11:13:29;;;;;;;3.73;1.57;;;19.90;55.10;;;;;;5071189;28;20556;-75
2021/10/24 11:15:55;;;;;;;;;;;19.40;56.70;;;;;;5076502;28;20024;-74
2021/10/24 11:18:31;;;;;;;4.38;1.63;;;19.30;58.00;;;;;;5071673;28;20006;-75
2021/10/24 11:20:58;;;;;;;2.83;1.45;;;19.10;57.20;;;;;;5074598;28;20068;-73
2021/10/24 11:23:29;;;;;;;3.92;1.60;;;19.00;58.20;;;;;;5075525;28;20056;-73
2021/10/24 11:25:54;;;;;;;2.80;1.58;;;19.20;60.20;;;;;;5080324;28;20080;-76
2021/10/24 11:28:25;;;;;;;2.80;1.35;;;19.50;58.10;;;;;;5075980;28;20118;-73
2021/10/24 11:31:04;;;;;;;3.13;1.25;;;19.30;57.30;;;;;;5082374;28;20039;-75
2021/10/24 11:33:45;;;;;;;2.30;1.40;;;18.90;58.10;;;;;;5075124;28;20492;-74
2021/10/24 11:36:13;;;;;;;2.25;1.50;;;18.80;59.20;;;;;;5077588;28;20078;-75
2021/10/24 11:38:40;;;;;;;3.10;1.60;;;18.70;59.40;;;;;;5080869;28;20036;-79
2021/10/24 11:41:17;;;;;;;3.92;1.45;;;18.50;60.90;;;;;;5071927;28;20040;-75
2021/10/24 11:43:43;;;;;;;2.83;1.30;;;18.30;60.10;;;;;;5083784;28;20032;-78
2021/10/24 11:46:10;;;;;;;2.85;1.38;;;18.10;60.50;;;;;;5083169;28;20032;-77
2021/10/24 11:48:36;;;;;;;3.17;1.40;;;18.10;61.90;;;;;;5073108;28;20051;-77
2021/10/24 11:51:03;;;;;;;2.58;1.00;;;18.10;61.80;;;;;;5079985;28;20393;-78
2021/10/24 11:53:43;;;;;;;3.00;1.30;;;18.20;62.60;;;;;;5074222;28;20477;-75
2021/10/24 11:56:12;;;;;;;2.65;1.10;;;18.20;61.70;;;;;;5084609;28;20017;-78
2021/10/24 11:58:46;;;;;;;1.98;0.88;;;18.10;61.80;;;;;;5073958;28;20027;-78
2021/10/24 12:01:34;;;;;;;1.70;1.10;;;18.00;62.00;;;;;;5082071;28;20078;-76
2021/10/24 12:04:05;;;;;;;1.90;1.10;;;17.90;62.30;;;;;;5074065;28;20033;-76
2021/10/24 12:06:55;;;;;;;2.50;1.00;;;17.90;62.60;;;;;;5072283;28;20105;-76
2021/10/24 12:09:29;;;;;;;2.92;1.40;;;17.70;62.70;;;;;;5075101;28;20029;-75
2021/10/24 12:12:05;;;;;;;3.05;1.30;;;17.60;63.40;;;;;;5074838;28;20442;-76
2021/10/24 12:14:30;;;;;;;2.22;1.30;;;17.60;63.50;;;;;;5081896;28;20516;-78
2021/10/24 12:16:56;;;;;;;2.97;1.13;;;17.40;64.00;;;;;;5081682;28;20032;-77
2021/10/24 12:19:30;;;;;;;2.45;1.25;;;17.40;64.10;;;;;;5079442;28;20024;-77
2021/10/24 12:21:56;;;;;;;;;;;17.40;64.60;;;;;;5086490;28;20089;-75
2021/10/24 12:24:25;;;;;;;1.67;1.10;;;17.30;64.30;;;;;;5077555;28;19913;-72
2021/10/24 12:27:05;;;;;;;2.58;1.30;;;17.20;64.80;;;;;;5073165;28;20035;-75
2021/10/24 12:29:31;;;;;;;4.03;1.13;;;17.00;64.60;;;;;;5069962;28;20032;-76
2021/10/24 12:32:15;;;;;;;3.25;1.25;;;17.00;65.40;;;;;;5080183;28;20028;-76
2021/10/24 12:35:06;;;;;;;2.25;1.30;;;17.00;65.10;;;;;;5059626;28;20056;-75
2021/10/24 12:37:37;;;;;;;2.97;1.40;;;17.00;65.20;;;;;;5071446;28;20048;-73
2021/10/24 12:40:19;;;;;;;2.70;1.50;;;17.00;65.50;;;;;;5073583;28;20025;-74
2021/10/24 12:42:59;;;;;;;5.28;2.42;;;17.10;65.40;;;;;;5073429;28;20029;-74
2021/10/24 12:45:24;;;;;;;4.25;1.83;;;17.10;65.30;;;;;;5072746;28;20409;-74
2021/10/24 12:47:58;;;;;;;5.25;2.00;;;17.00;65.20;;;;;;5072447;28;20035;-73
2021/10/24 12:50:32;;;;;;;3.35;1.80;;;17.00;65.50;;;;;;5039810;28;20033;-76
2021/10/24 12:53:08;;;;;;;2.85;1.73;;;16.90;65.80;;;;;;5073139;28;20051;-75
2021/10/24 12:55:34;;;;;;;2.67;1.63;;;17.00;66.30;;;;;;5075894;28;20056;-77
2021/10/24 12:58:00;;;;;;;3.42;1.88;;;17.10;66.30;;;;;;5073884;28;20033;-77
2021/10/24 13:00:31;;;;;;;4.30;1.70;;;17.20;66.20;;;;;;5070754;28;20078;-75